الصفحة الرئيسية
METAR-TAF:

METAR-TAF

مطار :

ترجو موريش, رومانيا

دائرة عرض: 46-32N, خط طول: 024-32E, ارتفاع: 308 متر

مراقبة الطقس الحالي

تاريخ ووقت الإصدار 14 دقيقة قبل الساعة 09:00UTC
ريح 3 عقدة من الشرق/الجنوب الشرقي, الاتجاه يتراوح بين الشمال الشرقي و الجنوب
درجة الحرارة 25°درجة مئوية
الرطوبة 47%
ضغط 1021 hPa
الرؤية 10 كم أو أكثر
غيوم قليلة على ارتفاع 3100 قدم
غيوم قليلة على ارتفاع 3400 قدم, مزنة ركامية.

METAR: LRTM 250900Z 11003KT 040V190 9999 FEW031 FEW034CB 25/13 Q1021

زمن: 12:14 (09:14 UTC)

توقعات

تاريخ ووقت الإصدار 1ساعة و 14 دقيقة قبل الساعة 08:00UTC
التوقعات صالحة من25 الساعة 09 UTC إلى 25 الساعة 18 UTC
ريح 4 عقدةمن اتجاهات متغيرة
الرؤية 10 كم أو أكثر
الغيوم لا تقل 1500 م ولا وجود لمزنة ركامية السحاب الأسود
أصبح
من 25 الساعة 09 UTC إلى 25 الساعة 11 UTC
ريح 10 عقدة من الشرق
غيوم متفرقة على ارتفاع 4500 قدم, مزنة ركامية.
مؤقت
من 25 الساعة 11 UTC إلى 25 الساعة 15 UTC
ريح 25 عقدةمن اتجاهات متغيرة تتزايد حتى 35 عقدة
الرؤية: 5000 متر
زخات من الأمطار الخفيفة,

TAF: LRTM 250800Z 2509/2518 VRB04KT CAVOK BECMG 2509/2511 09010KT SCT045CB TEMPO 2511/2515 VRB25G35KT 5000 -SHRA

أرصاد الطقس والتوقعات من أكثر من 4000 مطار (تقارير الطقس للمطار METAR والتنبؤ بالطقس بالمطارTAF).

المحطات المتاحة هي النقط الصفراء والحمراء على الخريطة.

حرك المؤشر فوق النقطة لمعرفة اسم المحطة.

ثم انقر لمعرفة أرصاد وتوقعات الطقس.

لتغيير الخارطة: اضغط على الأزرار الخضراء مع رمز الصليب الأسود للتكبير. على الزر الأخضر مع شرطة للتصغير، أو على الأسهم الخضراء للخرائط المجاورة.


METAR-TAF: